sensor_id;sensor_type;location;lat;lon;timestamp;temperature;humidity
39849;DHT22;25518;47.878;15.914;2022-12-31T00:01:58;0.80;99.90
39849;DHT22;25518;47.878;15.914;2022-12-31T00:04:47;0.90;99.90
39849;DHT22;25518;47.878;15.914;2022-12-31T00:07:37;0.80;99.90
39849;DHT22;25518;47.878;15.914;2022-12-31T00:10:28;0.80;99.90
39849;DHT22;25518;47.878;15.914;2022-12-31T00:13:18;0.80;99.90
39849;DHT22;25518;47.878;15.914;2022-12-31T00:16:09;0.80;99.90
39849;DHT22;25518;47.878;15.914;2022-12-31T00:18:59;0.90;99.90
39849;DHT22;25518;47.878;15.914;2022-12-31T00:21:49;0.90;99.90
39849;DHT22;25518;47.878;15.914;2022-12-31T00:24:39;1.00;99.90
39849;DHT22;25518;47.878;15.914;2022-12-31T00:27:31;1.00;99.90
39849;DHT22;25518;47.878;15.914;2022-12-31T00:30:20;0.90;99.90
39849;DHT22;25518;47.878;15.914;2022-12-31T00:33:10;0.90;99.90
39849;DHT22;25518;47.878;15.914;2022-12-31T00:36:09;0.90;99.90
39849;DHT22;25518;47.878;15.914;2022-12-31T00:39:00;0.90;99.90
39849;DHT22;25518;47.878;15.914;2022-12-31T00:41:50;0.80;99.90
39849;DHT22;25518;47.878;15.914;2022-12-31T00:44:40;0.70;99.90
39849;DHT22;25518;47.878;15.914;2022-12-31T00:47:30;0.60;99.90
39849;DHT22;25518;47.878;15.914;2022-12-31T00:50:19;0.60;99.90
39849;DHT22;25518;47.878;15.914;2022-12-31T00:53:09;0.50;99.90
39849;DHT22;25518;47.878;15.914;2022-12-31T00:56:00;0.60;99.90
39849;DHT22;25518;47.878;15.914;2022-12-31T00:58:51;0.80;99.90
39849;DHT22;25518;47.878;15.914;2022-12-31T01:01:41;0.80;99.90
39849;DHT22;25518;47.878;15.914;2022-12-31T01:04:31;0.90;99.90
39849;DHT22;25518;47.878;15.914;2022-12-31T01:07:21;0.80;99.90
39849;DHT22;25518;47.878;15.914;2022-12-31T01:10:10;0.90;99.90
39849;DHT22;25518;47.878;15.914;2022-12-31T01:13:00;0.80;99.90
39849;DHT22;25518;47.878;15.914;2022-12-31T01:15:50;0.70;99.90
39849;DHT22;25518;47.878;15.914;2022-12-31T01:18:39;0.80;99.90
39849;DHT22;25518;47.878;15.914;2022-12-31T01:21:29;0.80;99.90
39849;DHT22;25518;47.878;15.914;2022-12-31T01:24:20;0.80;99.90
39849;DHT22;25518;47.878;15.914;2022-12-31T01:27:09;1.00;99.90
39849;DHT22;25518;47.878;15.914;2022-12-31T01:29:59;0.90;99.90
39849;DHT22;25518;47.878;15.914;2022-12-31T01:32:49;0.90;99.90
39849;DHT22;25518;47.878;15.914;2022-12-31T01:35:38;0.90;99.90
39849;DHT22;25518;47.878;15.914;2022-12-31T01:38:28;0.90;99.90
39849;DHT22;25518;47.878;15.914;2022-12-31T01:41:23;0.90;99.90
39849;DHT22;25518;47.878;15.914;2022-12-31T01:47:41;0.90;99.90
39849;DHT22;25518;47.878;15.914;2022-12-31T01:50:32;0.70;99.90
39849;DHT22;25518;47.878;15.914;2022-12-31T01:53:26;0.60;99.90
39849;DHT22;25518;47.878;15.914;2022-12-31T01:56:18;0.70;99.90
39849;DHT22;25518;47.878;15.914;2022-12-31T01:59:12;0.70;99.90
39849;DHT22;25518;47.878;15.914;2022-12-31T02:02:02;0.70;99.90
39849;DHT22;25518;47.878;15.914;2022-12-31T02:04:54;0.70;99.90
39849;DHT22;25518;47.878;15.914;2022-12-31T02:07:47;0.90;99.90
39849;DHT22;25518;47.878;15.914;2022-12-31T02:10:38;0.90;99.90
39849;DHT22;25518;47.878;15.914;2022-12-31T02:13:27;0.90;99.90
39849;DHT22;25518;47.878;15.914;2022-12-31T02:31:56;1.20;99.90
39849;DHT22;25518;47.878;15.914;2022-12-31T02:34:51;1.10;99.90
39849;DHT22;25518;47.878;15.914;2022-12-31T02:37:44;1.10;99.90
39849;DHT22;25518;47.878;15.914;2022-12-31T02:40:37;1.00;99.90
39849;DHT22;25518;47.878;15.914;2022-12-31T02:43:27;0.90;99.90
39849;DHT22;25518;47.878;15.914;2022-12-31T02:46:33;0.80;99.90
39849;DHT22;25518;47.878;15.914;2022-12-31T02:58:53;1.00;99.90
39849;DHT22;25518;47.878;15.914;2022-12-31T03:18:56;1.40;99.90
39849;DHT22;25518;47.878;15.914;2022-12-31T03:22:05;1.50;99.90
39849;DHT22;25518;47.878;15.914;2022-12-31T03:25:17;1.60;99.90
39849;DHT22;25518;47.878;15.914;2022-12-31T03:28:26;1.70;99.90
39849;DHT22;25518;47.878;15.914;2022-12-31T03:31:15;1.50;99.90
39849;DHT22;25518;47.878;15.914;2022-12-31T03:34:05;1.50;99.90
39849;DHT22;25518;47.878;15.914;2022-12-31T03:36:54;1.40;99.90
39849;DHT22;25518;47.878;15.914;2022-12-31T03:39:44;1.20;99.90
39849;DHT22;25518;47.878;15.914;2022-12-31T03:42:34;1.10;99.90
39849;DHT22;25518;47.878;15.914;2022-12-31T03:45:23;1.00;99.90
39849;DHT22;25518;47.878;15.914;2022-12-31T03:48:13;1.00;99.90
39849;DHT22;25518;47.878;15.914;2022-12-31T03:51:02;0.80;99.90
39849;DHT22;25518;47.878;15.914;2022-12-31T03:53:52;0.80;99.90
39849;DHT22;25518;47.878;15.914;2022-12-31T03:56:42;0.70;99.90
39849;DHT22;25518;47.878;15.914;2022-12-31T03:59:32;0.90;99.90
39849;DHT22;25518;47.878;15.914;2022-12-31T04:02:22;-0.50;99.90
39849;DHT22;25518;47.878;15.914;2022-12-31T04:05:11;1.00;99.90
39849;DHT22;25518;47.878;15.914;2022-12-31T04:08:01;0.90;99.90
39849;DHT22;25518;47.878;15.914;2022-12-31T04:10:51;1.10;99.90
39849;DHT22;25518;47.878;15.914;2022-12-31T04:13:40;1.10;99.90
39849;DHT22;25518;47.878;15.914;2022-12-31T04:16:30;1.10;99.90
39849;DHT22;25518;47.878;15.914;2022-12-31T04:19:20;1.10;99.90
39849;DHT22;25518;47.878;15.914;2022-12-31T04:22:10;1.10;99.90
39849;DHT22;25518;47.878;15.914;2022-12-31T04:24:59;1.10;99.90
39849;DHT22;25518;47.878;15.914;2022-12-31T04:27:49;1.10;99.90
39849;DHT22;25518;47.878;15.914;2022-12-31T04:30:39;1.00;99.90
39849;DHT22;25518;47.878;15.914;2022-12-31T04:33:29;1.00;99.90
39849;DHT22;25518;47.878;15.914;2022-12-31T04:36:18;0.90;99.90
39849;DHT22;25518;47.878;15.914;2022-12-31T04:39:08;1.00;99.90
39849;DHT22;25518;47.878;15.914;2022-12-31T04:41:58;1.00;99.90
39849;DHT22;25518;47.878;15.914;2022-12-31T04:44:47;1.10;99.90
39849;DHT22;25518;47.878;15.914;2022-12-31T04:47:37;1.10;99.90
39849;DHT22;25518;47.878;15.914;2022-12-31T04:50:26;1.10;99.90
39849;DHT22;25518;47.878;15.914;2022-12-31T04:53:16;1.20;99.90
39849;DHT22;25518;47.878;15.914;2022-12-31T04:56:06;1.20;99.90
39849;DHT22;25518;47.878;15.914;2022-12-31T04:58:57;1.30;99.90
39849;DHT22;25518;47.878;15.914;2022-12-31T05:01:46;1.50;99.90
39849;DHT22;25518;47.878;15.914;2022-12-31T05:04:36;1.40;99.90
39849;DHT22;25518;47.878;15.914;2022-12-31T05:07:25;1.50;99.90
39849;DHT22;25518;47.878;15.914;2022-12-31T05:10:15;1.50;99.90
39849;DHT22;25518;47.878;15.914;2022-12-31T05:13:05;1.50;99.90
39849;DHT22;25518;47.878;15.914;2022-12-31T05:15:55;1.60;99.90
39849;DHT22;25518;47.878;15.914;2022-12-31T05:18:44;1.70;99.90
39849;DHT22;25518;47.878;15.914;2022-12-31T05:21:34;1.70;99.90
39849;DHT22;25518;47.878;15.914;2022-12-31T05:24:24;1.60;99.90
39849;DHT22;25518;47.878;15.914;2022-12-31T05:27:14;1.60;99.90
39849;DHT22;25518;47.878;15.914;2022-12-31T05:30:05;0.30;99.90
39849;DHT22;25518;47.878;15.914;2022-12-31T05:32:55;1.80;99.90
39849;DHT22;25518;47.878;15.914;2022-12-31T05:35:44;1.70;99.90
39849;DHT22;25518;47.878;15.914;2022-12-31T05:38:35;1.70;99.90
39849;DHT22;25518;47.878;15.914;2022-12-31T05:41:25;1.60;99.90
39849;DHT22;25518;47.878;15.914;2022-12-31T05:44:14;1.50;99.90
39849;DHT22;25518;47.878;15.914;2022-12-31T05:47:04;1.70;99.90
39849;DHT22;25518;47.878;15.914;2022-12-31T05:49:54;1.70;99.90
39849;DHT22;25518;47.878;15.914;2022-12-31T05:52:44;1.70;99.90
39849;DHT22;25518;47.878;15.914;2022-12-31T05:55:33;1.70;99.90
39849;DHT22;25518;47.878;15.914;2022-12-31T05:58:23;1.70;99.90
39849;DHT22;25518;47.878;15.914;2022-12-31T06:01:13;1.70;99.90
39849;DHT22;25518;47.878;15.914;2022-12-31T06:04:02;1.80;99.90
39849;DHT22;25518;47.878;15.914;2022-12-31T06:06:52;1.80;99.90
39849;DHT22;25518;47.878;15.914;2022-12-31T06:09:42;1.80;99.90
39849;DHT22;25518;47.878;15.914;2022-12-31T06:12:32;1.90;99.90
39849;DHT22;25518;47.878;15.914;2022-12-31T06:15:21;1.80;99.90
39849;DHT22;25518;47.878;15.914;2022-12-31T06:18:11;1.20;99.90
39849;DHT22;25518;47.878;15.914;2022-12-31T06:21:01;1.80;99.90
39849;DHT22;25518;47.878;15.914;2022-12-31T06:23:50;1.70;99.90
39849;DHT22;25518;47.878;15.914;2022-12-31T06:26:40;1.80;99.90
39849;DHT22;25518;47.878;15.914;2022-12-31T06:29:29;1.90;99.90
39849;DHT22;25518;47.878;15.914;2022-12-31T06:32:19;1.80;99.90
39849;DHT22;25518;47.878;15.914;2022-12-31T06:35:09;1.80;99.90
39849;DHT22;25518;47.878;15.914;2022-12-31T06:37:58;1.70;99.90
39849;DHT22;25518;47.878;15.914;2022-12-31T06:40:48;1.60;99.90
39849;DHT22;25518;47.878;15.914;2022-12-31T06:43:39;1.60;99.90
39849;DHT22;25518;47.878;15.914;2022-12-31T06:46:28;1.70;99.90
39849;DHT22;25518;47.878;15.914;2022-12-31T06:49:18;1.50;99.90
39849;DHT22;25518;47.878;15.914;2022-12-31T06:52:08;1.50;99.90
39849;DHT22;25518;47.878;15.914;2022-12-31T06:54:57;1.40;99.90
39849;DHT22;25518;47.878;15.914;2022-12-31T06:57:47;1.50;99.90
39849;DHT22;25518;47.878;15.914;2022-12-31T07:00:39;1.40;99.90
39849;DHT22;25518;47.878;15.914;2022-12-31T07:03:52;1.30;99.90
39849;DHT22;25518;47.878;15.914;2022-12-31T07:06:50;1.40;99.90
39849;DHT22;25518;47.878;15.914;2022-12-31T07:19:50;1.60;99.90
39849;DHT22;25518;47.878;15.914;2022-12-31T07:22:38;1.60;99.90
39849;DHT22;25518;47.878;15.914;2022-12-31T07:25:27;1.80;99.90
39849;DHT22;25518;47.878;15.914;2022-12-31T07:47:24;2.10;99.90
39849;DHT22;25518;47.878;15.914;2022-12-31T07:50:17;2.10;99.90
39849;DHT22;25518;47.878;15.914;2022-12-31T07:53:08;2.10;99.90
39849;DHT22;25518;47.878;15.914;2022-12-31T07:56:00;2.00;99.90
39849;DHT22;25518;47.878;15.914;2022-12-31T07:58:58;2.00;99.90
39849;DHT22;25518;47.878;15.914;2022-12-31T08:05:27;2.10;99.90
39849;DHT22;25518;47.878;15.914;2022-12-31T08:11:47;2.20;99.90
39849;DHT22;25518;47.878;15.914;2022-12-31T08:14:43;2.20;99.90
39849;DHT22;25518;47.878;15.914;2022-12-31T08:17:33;2.50;99.90
39849;DHT22;25518;47.878;15.914;2022-12-31T08:20:24;-0.30;99.90
39849;DHT22;25518;47.878;15.914;2022-12-31T08:39:08;3.20;99.90
39849;DHT22;25518;47.878;15.914;2022-12-31T08:42:07;3.30;99.90
39849;DHT22;25518;47.878;15.914;2022-12-31T08:45:13;3.30;99.90
39849;DHT22;25518;47.878;15.914;2022-12-31T08:51:16;3.50;99.90
39849;DHT22;25518;47.878;15.914;2022-12-31T08:54:10;3.60;99.90
39849;DHT22;25518;47.878;15.914;2022-12-31T08:57:29;3.60;99.90
39849;DHT22;25518;47.878;15.914;2022-12-31T09:00:18;3.70;99.90
39849;DHT22;25518;47.878;15.914;2022-12-31T09:03:14;3.80;99.90
39849;DHT22;25518;47.878;15.914;2022-12-31T09:06:36;3.80;99.90
39849;DHT22;25518;47.878;15.914;2022-12-31T09:18:46;4.10;99.90
39849;DHT22;25518;47.878;15.914;2022-12-31T09:21:36;4.10;99.90
39849;DHT22;25518;47.878;15.914;2022-12-31T09:24:26;4.20;99.90
39849;DHT22;25518;47.878;15.914;2022-12-31T09:27:27;4.30;99.90
39849;DHT22;25518;47.878;15.914;2022-12-31T09:30:18;4.40;99.90
39849;DHT22;25518;47.878;15.914;2022-12-31T09:33:41;4.40;99.90
39849;DHT22;25518;47.878;15.914;2022-12-31T09:36:28;4.40;99.90
39849;DHT22;25518;47.878;15.914;2022-12-31T09:39:29;4.60;99.90
39849;DHT22;25518;47.878;15.914;2022-12-31T10:00:50;4.90;99.90
39849;DHT22;25518;47.878;15.914;2022-12-31T10:23:20;5.70;99.90
39849;DHT22;25518;47.878;15.914;2022-12-31T10:29:57;6.50;99.90
39849;DHT22;25518;47.878;15.914;2022-12-31T10:33:16;6.70;99.90
39849;DHT22;25518;47.878;15.914;2022-12-31T10:35:53;6.90;99.90
39849;DHT22;25518;47.878;15.914;2022-12-31T10:48:40;7.30;99.90
39849;DHT22;25518;47.878;15.914;2022-12-31T11:01:18;8.00;99.90
39849;DHT22;25518;47.878;15.914;2022-12-31T11:17:15;8.00;99.90
39849;DHT22;25518;47.878;15.914;2022-12-31T11:20:32;8.00;99.90
39849;DHT22;25518;47.878;15.914;2022-12-31T11:23:49;8.00;99.90
39849;DHT22;25518;47.878;15.914;2022-12-31T11:43:00;6.70;99.90
39849;DHT22;25518;47.878;15.914;2022-12-31T11:52:26;6.80;99.90
39849;DHT22;25518;47.878;15.914;2022-12-31T11:58:31;7.30;99.90
39849;DHT22;25518;47.878;15.914;2022-12-31T12:01:35;7.40;99.90
39849;DHT22;25518;47.878;15.914;2022-12-31T12:04:32;7.60;99.90
39849;DHT22;25518;47.878;15.914;2022-12-31T12:07:22;7.70;99.90
39849;DHT22;25518;47.878;15.914;2022-12-31T12:10:21;7.80;99.90
39849;DHT22;25518;47.878;15.914;2022-12-31T12:13:19;8.00;99.90
39849;DHT22;25518;47.878;15.914;2022-12-31T12:16:09;8.10;99.90
39849;DHT22;25518;47.878;15.914;2022-12-31T12:19:03;8.30;99.90
39849;DHT22;25518;47.878;15.914;2022-12-31T12:21:53;8.30;99.90
39849;DHT22;25518;47.878;15.914;2022-12-31T12:24:55;8.20;99.90
39849;DHT22;25518;47.878;15.914;2022-12-31T12:27:46;8.30;99.90
39849;DHT22;25518;47.878;15.914;2022-12-31T12:30:37;8.40;99.90
39849;DHT22;25518;47.878;15.914;2022-12-31T12:33:40;8.60;99.90
39849;DHT22;25518;47.878;15.914;2022-12-31T12:36:31;8.70;99.90
39849;DHT22;25518;47.878;15.914;2022-12-31T12:39:25;8.80;99.90
39849;DHT22;25518;47.878;15.914;2022-12-31T12:42:15;8.90;99.90
39849;DHT22;25518;47.878;15.914;2022-12-31T12:45:13;8.90;99.90
39849;DHT22;25518;47.878;15.914;2022-12-31T12:48:11;8.80;99.90
39849;DHT22;25518;47.878;15.914;2022-12-31T12:57:16;8.90;99.90
39849;DHT22;25518;47.878;15.914;2022-12-31T13:00:23;8.90;99.90
39849;DHT22;25518;47.878;15.914;2022-12-31T13:16:11;9.10;99.90
39849;DHT22;25518;47.878;15.914;2022-12-31T13:21:45;9.20;99.90
39849;DHT22;25518;47.878;15.914;2022-12-31T13:27:49;9.20;99.90
39849;DHT22;25518;47.878;15.914;2022-12-31T13:30:44;9.10;99.90
39849;DHT22;25518;47.878;15.914;2022-12-31T13:33:40;9.20;99.90
39849;DHT22;25518;47.878;15.914;2022-12-31T13:36:32;9.10;99.90
39849;DHT22;25518;47.878;15.914;2022-12-31T13:39:28;9.20;99.90
39849;DHT22;25518;47.878;15.914;2022-12-31T13:42:26;9.10;99.90
39849;DHT22;25518;47.878;15.914;2022-12-31T13:45:25;9.20;99.90
39849;DHT22;25518;47.878;15.914;2022-12-31T13:48:20;9.10;99.90
39849;DHT22;25518;47.878;15.914;2022-12-31T13:51:46;9.20;99.90
39849;DHT22;25518;47.878;15.914;2022-12-31T13:54:42;9.30;99.90
39849;DHT22;25518;47.878;15.914;2022-12-31T14:00:29;9.20;99.90
39849;DHT22;25518;47.878;15.914;2022-12-31T14:04:10;9.20;99.90
39849;DHT22;25518;47.878;15.914;2022-12-31T14:06:54;9.10;99.90
39849;DHT22;25518;47.878;15.914;2022-12-31T14:09:46;9.00;99.90
39849;DHT22;25518;47.878;15.914;2022-12-31T14:16:01;8.90;99.90
39849;DHT22;25518;47.878;15.914;2022-12-31T14:19:04;8.80;99.90
39849;DHT22;25518;47.878;15.914;2022-12-31T14:22:19;8.70;99.90
39849;DHT22;25518;47.878;15.914;2022-12-31T14:25:21;8.60;99.90
39849;DHT22;25518;47.878;15.914;2022-12-31T14:28:40;8.50;99.90
39849;DHT22;25518;47.878;15.914;2022-12-31T14:40:36;8.20;99.90
39849;DHT22;25518;47.878;15.914;2022-12-31T14:50:10;8.00;99.90
39849;DHT22;25518;47.878;15.914;2022-12-31T14:56:01;7.90;99.90
39849;DHT22;25518;47.878;15.914;2022-12-31T14:58:57;7.80;99.90
39849;DHT22;25518;47.878;15.914;2022-12-31T15:01:47;7.80;99.90
39849;DHT22;25518;47.878;15.914;2022-12-31T15:04:45;7.60;99.90
39849;DHT22;25518;47.878;15.914;2022-12-31T15:23:43;7.00;99.90
39849;DHT22;25518;47.878;15.914;2022-12-31T15:26:34;6.80;99.90
39849;DHT22;25518;47.878;15.914;2022-12-31T15:29:40;6.80;99.90
39849;DHT22;25518;47.878;15.914;2022-12-31T15:32:39;6.80;99.90
39849;DHT22;25518;47.878;15.914;2022-12-31T15:35:44;6.80;99.90
39849;DHT22;25518;47.878;15.914;2022-12-31T15:38:39;6.80;99.90
39849;DHT22;25518;47.878;15.914;2022-12-31T15:41:49;6.70;99.90
39849;DHT22;25518;47.878;15.914;2022-12-31T15:44:48;6.60;99.90
39849;DHT22;25518;47.878;15.914;2022-12-31T15:47:42;6.50;99.90
39849;DHT22;25518;47.878;15.914;2022-12-31T15:50:35;6.50;99.90
39849;DHT22;25518;47.878;15.914;2022-12-31T15:53:32;6.40;99.90
39849;DHT22;25518;47.878;15.914;2022-12-31T15:59:21;6.40;99.90
39849;DHT22;25518;47.878;15.914;2022-12-31T16:02:27;6.40;99.90
39849;DHT22;25518;47.878;15.914;2022-12-31T16:05:21;6.40;99.90
39849;DHT22;25518;47.878;15.914;2022-12-31T16:08:17;6.40;99.90
39849;DHT22;25518;47.878;15.914;2022-12-31T16:11:08;6.40;99.90
39849;DHT22;25518;47.878;15.914;2022-12-31T16:13:58;6.30;99.90
39849;DHT22;25518;47.878;15.914;2022-12-31T16:16:57;6.20;99.90
39849;DHT22;25518;47.878;15.914;2022-12-31T16:19:47;6.10;99.90
39849;DHT22;25518;47.878;15.914;2022-12-31T16:22:38;6.10;99.90
39849;DHT22;25518;47.878;15.914;2022-12-31T16:25:29;6.00;99.90
39849;DHT22;25518;47.878;15.914;2022-12-31T16:28:22;6.10;99.90
39849;DHT22;25518;47.878;15.914;2022-12-31T16:31:18;6.20;99.90
39849;DHT22;25518;47.878;15.914;2022-12-31T16:34:14;6.30;99.90
39849;DHT22;25518;47.878;15.914;2022-12-31T16:37:12;6.10;99.90
39849;DHT22;25518;47.878;15.914;2022-12-31T16:43:26;6.00;99.90
39849;DHT22;25518;47.878;15.914;2022-12-31T16:49:18;6.00;99.90
39849;DHT22;25518;47.878;15.914;2022-12-31T16:52:26;6.00;99.90
39849;DHT22;25518;47.878;15.914;2022-12-31T16:55:21;6.00;99.90
39849;DHT22;25518;47.878;15.914;2022-12-31T16:58:18;5.80;99.90
39849;DHT22;25518;47.878;15.914;2022-12-31T17:01:19;5.80;99.90
39849;DHT22;25518;47.878;15.914;2022-12-31T17:04:14;5.80;99.90
39849;DHT22;25518;47.878;15.914;2022-12-31T17:10:32;5.60;99.90
39849;DHT22;25518;47.878;15.914;2022-12-31T17:13:27;5.50;99.90
39849;DHT22;25518;47.878;15.914;2022-12-31T17:16:17;2.80;99.90
39849;DHT22;25518;47.878;15.914;2022-12-31T17:19:39;5.50;99.90
39849;DHT22;25518;47.878;15.914;2022-12-31T17:22:33;5.50;99.90
39849;DHT22;25518;47.878;15.914;2022-12-31T17:25:27;5.30;99.90
39849;DHT22;25518;47.878;15.914;2022-12-31T17:28:21;5.50;99.90
39849;DHT22;25518;47.878;15.914;2022-12-31T17:31:32;5.60;99.90
39849;DHT22;25518;47.878;15.914;2022-12-31T17:34:22;6.10;99.90
39849;DHT22;25518;47.878;15.914;2022-12-31T17:37:22;6.30;99.90
39849;DHT22;25518;47.878;15.914;2022-12-31T17:40:35;6.40;99.90
39849;DHT22;25518;47.878;15.914;2022-12-31T17:43:26;6.20;99.90
39849;DHT22;25518;47.878;15.914;2022-12-31T17:46:16;6.20;99.90
39849;DHT22;25518;47.878;15.914;2022-12-31T17:49:08;5.90;99.90
39849;DHT22;25518;47.878;15.914;2022-12-31T17:52:01;5.70;99.90
39849;DHT22;25518;47.878;15.914;2022-12-31T17:54:51;5.60;99.90
39849;DHT22;25518;47.878;15.914;2022-12-31T17:57:57;5.50;99.90
39849;DHT22;25518;47.878;15.914;2022-12-31T18:00:46;5.40;99.90
39849;DHT22;25518;47.878;15.914;2022-12-31T18:03:36;5.40;99.90
39849;DHT22;25518;47.878;15.914;2022-12-31T18:06:25;5.30;99.90
39849;DHT22;25518;47.878;15.914;2022-12-31T18:09:17;5.30;99.90
39849;DHT22;25518;47.878;15.914;2022-12-31T18:12:08;5.40;99.90
39849;DHT22;25518;47.878;15.914;2022-12-31T18:14:57;5.40;99.90
39849;DHT22;25518;47.878;15.914;2022-12-31T18:17:47;5.50;99.90
39849;DHT22;25518;47.878;15.914;2022-12-31T18:20:37;5.50;99.90
39849;DHT22;25518;47.878;15.914;2022-12-31T18:23:33;5.50;99.90
39849;DHT22;25518;47.878;15.914;2022-12-31T18:26:25;5.50;99.90
39849;DHT22;25518;47.878;15.914;2022-12-31T18:29:17;5.60;99.90
39849;DHT22;25518;47.878;15.914;2022-12-31T18:32:22;5.70;99.90
39849;DHT22;25518;47.878;15.914;2022-12-31T18:35:18;5.60;99.90
39849;DHT22;25518;47.878;15.914;2022-12-31T18:38:12;5.20;99.90
39849;DHT22;25518;47.878;15.914;2022-12-31T18:41:02;5.00;99.90
39849;DHT22;25518;47.878;15.914;2022-12-31T18:43:52;5.10;99.90
39849;DHT22;25518;47.878;15.914;2022-12-31T18:46:42;5.10;99.90
39849;DHT22;25518;47.878;15.914;2022-12-31T18:49:31;5.20;99.90
39849;DHT22;25518;47.878;15.914;2022-12-31T18:52:21;5.20;99.90
39849;DHT22;25518;47.878;15.914;2022-12-31T18:55:22;5.20;99.90
39849;DHT22;25518;47.878;15.914;2022-12-31T18:58:12;5.30;99.90
39849;DHT22;25518;47.878;15.914;2022-12-31T19:01:02;5.30;99.90
39849;DHT22;25518;47.878;15.914;2022-12-31T19:03:56;5.30;99.90
39849;DHT22;25518;47.878;15.914;2022-12-31T19:06:47;5.20;99.90
39849;DHT22;25518;47.878;15.914;2022-12-31T19:09:37;5.30;99.90
39849;DHT22;25518;47.878;15.914;2022-12-31T19:12:27;5.20;99.90
39849;DHT22;25518;47.878;15.914;2022-12-31T19:15:50;5.20;99.90
39849;DHT22;25518;47.878;15.914;2022-12-31T19:18:40;5.10;99.90
39849;DHT22;25518;47.878;15.914;2022-12-31T19:21:30;5.10;99.90
39849;DHT22;25518;47.878;15.914;2022-12-31T19:24:23;5.10;99.90
39849;DHT22;25518;47.878;15.914;2022-12-31T19:27:14;4.90;99.90
39849;DHT22;25518;47.878;15.914;2022-12-31T19:30:05;4.70;99.90
39849;DHT22;25518;47.878;15.914;2022-12-31T19:32:56;4.60;99.90
39849;DHT22;25518;47.878;15.914;2022-12-31T19:35:45;4.60;99.90
39849;DHT22;25518;47.878;15.914;2022-12-31T19:38:35;4.50;99.90
39849;DHT22;25518;47.878;15.914;2022-12-31T19:41:24;4.30;99.90
39849;DHT22;25518;47.878;15.914;2022-12-31T19:44:16;4.20;99.90
39849;DHT22;25518;47.878;15.914;2022-12-31T19:47:10;4.30;99.90
39849;DHT22;25518;47.878;15.914;2022-12-31T19:50:01;4.50;99.90
39849;DHT22;25518;47.878;15.914;2022-12-31T19:52:53;4.40;99.90
39849;DHT22;25518;47.878;15.914;2022-12-31T19:55:43;4.30;99.90
39849;DHT22;25518;47.878;15.914;2022-12-31T19:58:32;4.10;99.90
39849;DHT22;25518;47.878;15.914;2022-12-31T20:01:23;3.90;99.90
39849;DHT22;25518;47.878;15.914;2022-12-31T20:04:13;4.00;99.90
39849;DHT22;25518;47.878;15.914;2022-12-31T20:07:02;3.70;99.90
39849;DHT22;25518;47.878;15.914;2022-12-31T20:09:52;3.80;99.90
39849;DHT22;25518;47.878;15.914;2022-12-31T20:12:41;3.90;99.90
39849;DHT22;25518;47.878;15.914;2022-12-31T20:15:32;3.90;99.90
39849;DHT22;25518;47.878;15.914;2022-12-31T20:18:21;3.90;99.90
39849;DHT22;25518;47.878;15.914;2022-12-31T20:21:15;4.00;99.90
39849;DHT22;25518;47.878;15.914;2022-12-31T20:24:07;4.00;99.90
39849;DHT22;25518;47.878;15.914;2022-12-31T20:26:57;4.00;99.90
39849;DHT22;25518;47.878;15.914;2022-12-31T20:29:46;4.20;99.90
39849;DHT22;25518;47.878;15.914;2022-12-31T20:32:36;4.30;99.90
39849;DHT22;25518;47.878;15.914;2022-12-31T20:35:26;4.20;99.90
39849;DHT22;25518;47.878;15.914;2022-12-31T20:38:15;4.10;99.90
39849;DHT22;25518;47.878;15.914;2022-12-31T20:41:07;4.10;99.90
39849;DHT22;25518;47.878;15.914;2022-12-31T20:43:58;4.30;99.90
39849;DHT22;25518;47.878;15.914;2022-12-31T20:46:47;4.40;99.90
39849;DHT22;25518;47.878;15.914;2022-12-31T20:49:37;4.60;99.90
39849;DHT22;25518;47.878;15.914;2022-12-31T20:52:27;4.70;99.90
39849;DHT22;25518;47.878;15.914;2022-12-31T20:55:16;4.50;99.90
39849;DHT22;25518;47.878;15.914;2022-12-31T20:58:06;4.60;99.90
39849;DHT22;25518;47.878;15.914;2022-12-31T21:00:56;4.60;99.90
39849;DHT22;25518;47.878;15.914;2022-12-31T21:03:46;4.40;99.90
39849;DHT22;25518;47.878;15.914;2022-12-31T21:06:36;4.30;99.90
39849;DHT22;25518;47.878;15.914;2022-12-31T21:09:26;4.20;99.90
39849;DHT22;25518;47.878;15.914;2022-12-31T21:12:16;4.20;99.90
39849;DHT22;25518;47.878;15.914;2022-12-31T21:15:25;4.00;99.90
39849;DHT22;25518;47.878;15.914;2022-12-31T21:18:15;3.90;99.90
39849;DHT22;25518;47.878;15.914;2022-12-31T21:21:06;4.00;99.90
39849;DHT22;25518;47.878;15.914;2022-12-31T21:23:55;4.10;99.90
39849;DHT22;25518;47.878;15.914;2022-12-31T21:26:45;4.00;99.90
39849;DHT22;25518;47.878;15.914;2022-12-31T21:29:34;4.00;99.90
39849;DHT22;25518;47.878;15.914;2022-12-31T21:32:25;3.90;99.90
39849;DHT22;25518;47.878;15.914;2022-12-31T21:35:14;3.80;99.90
39849;DHT22;25518;47.878;15.914;2022-12-31T21:38:05;3.70;99.90
39849;DHT22;25518;47.878;15.914;2022-12-31T21:41:01;3.80;99.90
39849;DHT22;25518;47.878;15.914;2022-12-31T21:43:51;3.70;99.90
39849;DHT22;25518;47.878;15.914;2022-12-31T21:46:41;3.80;99.90
39849;DHT22;25518;47.878;15.914;2022-12-31T21:49:30;3.70;99.90
39849;DHT22;25518;47.878;15.914;2022-12-31T21:52:20;3.60;99.90
39849;DHT22;25518;47.878;15.914;2022-12-31T21:55:21;3.50;99.90
39849;DHT22;25518;47.878;15.914;2022-12-31T21:58:31;2.30;99.90
39849;DHT22;25518;47.878;15.914;2022-12-31T22:01:21;3.30;99.90
39849;DHT22;25518;47.878;15.914;2022-12-31T22:04:30;3.40;99.90
39849;DHT22;25518;47.878;15.914;2022-12-31T22:07:20;3.40;99.90
39849;DHT22;25518;47.878;15.914;2022-12-31T22:10:10;3.50;99.90
39849;DHT22;25518;47.878;15.914;2022-12-31T22:12:59;3.40;99.90
39849;DHT22;25518;47.878;15.914;2022-12-31T22:15:53;3.50;99.90
39849;DHT22;25518;47.878;15.914;2022-12-31T22:18:43;3.70;99.90
39849;DHT22;25518;47.878;15.914;2022-12-31T22:21:32;4.00;99.90
39849;DHT22;25518;47.878;15.914;2022-12-31T22:24:22;4.00;99.90
39849;DHT22;25518;47.878;15.914;2022-12-31T22:27:12;3.80;99.90
39849;DHT22;25518;47.878;15.914;2022-12-31T22:30:01;3.70;99.90
39849;DHT22;25518;47.878;15.914;2022-12-31T22:32:51;3.60;99.90
39849;DHT22;25518;47.878;15.914;2022-12-31T22:35:40;3.70;99.90
39849;DHT22;25518;47.878;15.914;2022-12-31T22:38:31;3.70;99.90
39849;DHT22;25518;47.878;15.914;2022-12-31T22:41:22;3.60;99.90
39849;DHT22;25518;47.878;15.914;2022-12-31T22:44:12;3.70;99.90
39849;DHT22;25518;47.878;15.914;2022-12-31T22:47:01;3.50;99.90
39849;DHT22;25518;47.878;15.914;2022-12-31T22:49:51;3.60;99.90
39849;DHT22;25518;47.878;15.914;2022-12-31T22:52:40;3.60;99.90
39849;DHT22;25518;47.878;15.914;2022-12-31T22:55:30;3.70;99.90
39849;DHT22;25518;47.878;15.914;2022-12-31T22:58:21;3.60;99.90
39849;DHT22;25518;47.878;15.914;2022-12-31T23:01:22;3.60;99.90
39849;DHT22;25518;47.878;15.914;2022-12-31T23:04:12;3.40;99.90